Angie, Louisiana
Current Conditions -  °F | °C
As of 6:55 AM on Friday 31 Oct 2014 (Local Time) from KBXA Reporting Station
NA  
Wind Chill: 42°   Ceiling: NA
Heat Index: 42°   Visibility: 10mi
Dew Point: 39°   Wind: 0mph
Humidity: 89%   Direction: NA
Pressure: 30.05"   Gusts: NA
Location:  30.96°N, 89.82°W
Report Text: KBXA 311155Z AUTO 00000KT 10SM 06/04 A3005 RMK AO2 T00570040 10079 20052
Loading
Personal Weather Stations






























Interactive Weather Map
Tropical Storm Tracking
New forecast layout! Learn more

10-Day Weather Forecast

Advertisements
Track Severe Weather on mobile